Terminal Aerodrome Forecast
Issued by NWS Shreveport, LA

Home | Current Version | Previous Version | Text Only | Print | Product List | Glossary On
Versions: 1 2 3 4 5 6 7 8 9 10 11 12 13 14 15 16 17 18 19 20 21 22
000
FTUS44 KSHV 231300 AAA
TAFELD
TAF AMD
KELD 231315Z 2313/2412 VRB03KT 6SM BR SKC
     FM231500 13007KT P6SM FEW040
     FM240000 16003KT P6SM SKC=

USA.gov is the U.S. government's official web portal to all federal, state and local government web resources and services.